Time;durP1;ratioP1;P1;durP2;ratioP2;P2;SDS_P1;SDS_P2;PMS_P1;PMS_P2;Temp;Humidity;BMP_temperature;BMP_pressure;BME280_temperature;BME280_humidity;BME280_pressure;Samples;Min_cycle;Max_cycle;Signal;HPM_P1;HPM_P2
2022/10/27 00:02:48;;;;;;;30.80;15.60;;;;;;;9.28;100.00;100539.50;106114;1289;61820;-73
2022/10/27 00:05:36;;;;;;;28.20;15.10;;;;;;;9.29;100.00;100540.52;106112;1289;71946;-74
2022/10/27 00:08:24;;;;;;;34.00;15.90;;;;;;;9.29;100.00;100539.77;106136;1288;68753;-76
2022/10/27 00:11:12;;;;;;;26.50;14.50;;;;;;;9.31;100.00;100538.10;106006;1288;71392;-76
2022/10/27 00:14:00;;;;;;;27.50;14.80;;;;;;;9.31;100.00;100543.89;106123;1295;60320;-75
2022/10/27 00:16:54;;;;;;;30.60;15.60;;;;;;;9.34;100.00;100544.23;106158;1288;58679;-75
2022/10/27 00:19:42;;;;;;;27.70;15.40;;;;;;;9.36;100.00;100544.48;106026;1290;73176;-76
2022/10/27 00:22:29;;;;;;;29.80;15.90;;;;;;;9.38;100.00;100547.02;106135;1289;67564;-74
2022/10/27 00:25:20;;;;;;;29.00;15.70;;;;;;;9.40;100.00;100547.25;106132;1295;72367;-74
2022/10/27 00:28:08;;;;;;;28.70;14.70;;;;;;;9.41;100.00;100552.99;106114;1287;59293;-74
2022/10/27 00:31:10;;;;;;;29.10;15.10;;;;;;;9.43;100.00;100549.52;106049;1289;60050;-78
2022/10/27 00:33:59;;;;;;;27.10;14.70;;;;;;;9.44;100.00;100551.05;106128;1285;70532;-74
2022/10/27 00:36:47;;;;;;;27.40;14.80;;;;;;;9.45;100.00;100550.81;106037;1289;67688;-74
2022/10/27 00:39:34;;;;;;;27.90;15.10;;;;;;;9.46;100.00;100549.49;106111;1282;71014;-74
2022/10/27 00:42:22;;;;;;;27.70;14.80;;;;;;;9.46;100.00;100553.71;106118;1295;60326;-75
2022/10/27 00:45:10;;;;;;;27.70;14.30;;;;;;;9.47;100.00;100551.18;106134;1288;60472;-74
2022/10/27 00:47:58;;;;;;;28.80;16.40;;;;;;;9.48;100.00;100551.14;106121;1288;72070;-75
2022/10/27 00:50:46;;;;;;;28.80;14.90;;;;;;;9.49;100.00;100555.35;106155;1287;66505;-74
2022/10/27 00:53:33;;;;;;;26.90;14.60;;;;;;;9.49;100.00;100554.98;106033;1289;71663;-75
2022/10/27 00:56:22;;;;;;;25.90;13.80;;;;;;;9.48;100.00;100554.69;106114;1289;59660;-75
2022/10/27 00:59:10;;;;;;;25.90;13.10;;;;;;;9.46;100.00;100553.05;106012;1283;61296;-75
2022/10/27 01:01:58;;;;;;;30.30;15.30;;;;;;;9.44;100.00;100547.18;106129;1287;71928;-74
2022/10/27 01:05:15;;;;;;;27.50;14.20;;;;;;;9.42;100.00;100546.90;106119;1288;67545;-74
2022/10/27 01:08:05;;;;;;;29.10;13.80;;;;;;;9.42;100.00;100544.11;106070;1289;72521;-74
2022/10/27 01:10:53;;;;;;;30.80;15.10;;;;;;;9.41;100.00;100540.08;106069;1289;59596;-74
2022/10/27 01:13:42;;;;;;;28.40;13.50;;;;;;;9.41;100.00;100541.84;106123;1289;60047;-74
2022/10/27 01:16:40;;;;;;;25.80;13.30;;;;;;;9.39;100.00;100546.04;106127;1288;73335;-74
2022/10/27 01:20:04;;;;;;;27.80;14.30;;;;;;;9.36;100.00;100543.42;106016;1292;68658;-75
2022/10/27 01:23:19;;;;;;;29.40;15.90;;;;;;;9.32;100.00;100537.48;106141;1289;72551;-74
2022/10/27 01:26:34;;;;;;;28.50;14.80;;;;;;;9.28;100.00;100538.08;106112;1289;60547;-75
2022/10/27 01:29:52;;;;;;;29.20;16.60;;;;;;;9.26;100.00;100541.27;106127;1289;62077;-74
2022/10/27 01:32:55;;;;;;;31.20;15.00;;;;;;;9.24;100.00;100544.59;106116;1288;70574;-73
2022/10/27 01:35:57;;;;;;;31.50;14.10;;;;;;;9.22;100.00;100546.63;106008;1291;68568;-74
2022/10/27 01:39:19;;;;;;;30.00;15.80;;;;;;;9.19;100.00;100548.89;106033;1289;73479;-73
2022/10/27 01:42:21;;;;;;;30.40;16.90;;;;;;;9.17;100.00;100549.55;106016;1289;60347;-74
2022/10/27 01:45:14;;;;;;;30.40;16.00;;;;;;;9.16;100.00;100544.54;106041;1287;58143;-75
2022/10/27 01:48:04;;;;;;;33.10;17.20;;;;;;;9.14;100.00;100544.11;106028;1285;73326;-74
2022/10/27 01:50:52;;;;;;;34.90;17.00;;;;;;;9.12;100.00;100538.59;105978;1289;66471;-74
2022/10/27 01:53:50;;;;;;;36.40;17.90;;;;;;;9.11;100.00;100542.74;106045;1289;72478;-74
2022/10/27 01:57:11;;;;;;;31.10;16.80;;;;;;;9.10;100.00;100541.92;106014;1292;59301;-73
2022/10/27 02:00:06;;;;;;;31.70;17.70;;;;;;;9.09;100.00;100541.25;106039;1291;60051;-74
2022/10/27 02:03:08;;;;;;;32.10;17.70;;;;;;;9.08;100.00;100538.16;106132;1288;71003;-74
2022/10/27 02:06:37;;;;;;;31.60;16.70;;;;;;;9.06;100.00;100541.46;106011;1289;68100;-75
2022/10/27 02:09:45;;;;;;;28.10;15.00;;;;;;;9.03;100.00;100540.34;106034;1288;72494;-75
2022/10/27 02:12:37;;;;;;;34.10;18.00;;;;;;;9.01;100.00;100542.46;106038;1289;59670;-75
2022/10/27 02:15:32;;;;;;;36.00;17.60;;;;;;;8.99;100.00;100544.34;106022;1292;60095;-75
2022/10/27 02:18:27;;;;;;;36.80;18.40;;;;;;;8.99;100.00;100544.41;106129;1288;73131;-75
2022/10/27 02:21:16;;;;;;;34.10;18.00;;;;;;;8.98;100.00;100544.95;106129;1289;68093;-75
2022/10/27 02:24:05;;;;;;;34.70;17.60;;;;;;;8.97;100.00;100548.59;106124;1289;73672;-74
2022/10/27 02:27:17;;;;;;;36.00;18.40;;;;;;;8.95;100.00;100546.55;106134;1287;57133;-74
2022/10/27 02:30:06;;;;;;;34.80;18.60;;;;;;;8.94;100.00;100539.39;106035;1292;60081;-74
2022/10/27 02:32:53;;;;;;;35.40;18.50;;;;;;;8.93;100.00;100538.02;106050;1288;71714;-74
2022/10/27 02:35:41;;;;;;;35.20;18.00;;;;;;;8.93;100.00;100536.43;106120;1287;68586;-74
2022/10/27 02:38:34;;;;;;;38.50;19.80;;;;;;;8.92;100.00;100530.47;106042;1284;71348;-75
2022/10/27 02:41:22;;;;;;;35.70;19.50;;;;;;;8.92;100.00;100532.08;106114;1285;58908;-73
2022/10/27 02:44:09;;;;;;;38.20;19.70;;;;;;;8.91;100.00;100534.39;106144;1281;57780;-74
2022/10/27 02:46:57;;;;;;;39.40;21.50;;;;;;;8.92;100.00;100532.77;106127;1282;73423;-74
2022/10/27 02:49:48;;;;;;;37.00;18.50;;;;;;;8.93;100.00;100534.48;106132;1289;65251;-74
2022/10/27 02:52:36;;;;;;;38.60;19.70;;;;;;;8.95;100.00;100537.21;106113;1289;73526;-74
2022/10/27 02:55:23;;;;;;;40.60;20.80;;;;;;;8.97;100.00;100537.58;106088;1288;60360;-75
2022/10/27 02:58:11;;;;;;;38.80;19.60;;;;;;;9.02;100.00;100544.73;106078;1288;60872;-75
2022/10/27 03:00:59;;;;;;;37.80;20.40;;;;;;;9.07;100.00;100547.92;106100;1289;71899;-75
2022/10/27 03:03:47;;;;;;;40.50;21.50;;;;;;;9.12;100.00;100543.91;105973;1290;68755;-75
2022/10/27 03:06:35;;;;;;;39.00;21.40;;;;;;;9.16;100.00;100546.65;106109;1286;72370;-75
2022/10/27 03:09:23;;;;;;;34.70;19.70;;;;;;;9.23;100.00;100544.83;106109;1288;60438;-75
2022/10/27 03:12:12;;;;;;;38.00;20.60;;;;;;;9.29;100.00;100540.34;106083;1288;61139;-75
2022/10/27 03:15:00;;;;;;;35.00;17.80;;;;;;;9.35;100.00;100540.99;106065;1281;73412;-76
2022/10/27 03:17:48;;;;;;;35.50;19.90;;;;;;;9.37;100.00;100544.22;106106;1289;67671;-76
2022/10/27 03:20:38;;;;;;;38.10;21.20;;;;;;;9.37;100.00;100544.38;106100;1288;72481;-76
2022/10/27 03:23:26;;;;;;;35.00;19.30;;;;;;;9.41;100.00;100537.83;106103;1289;60882;-75
2022/10/27 03:26:15;;;;;;;34.70;20.20;;;;;;;9.40;100.00;100536.96;105930;1289;61116;-75
2022/10/27 03:29:02;;;;;;;32.80;18.50;;;;;;;9.40;100.00;100539.64;106102;1288;71917;-74
2022/10/27 03:31:50;;;;;;;28.80;16.40;;;;;;;9.40;100.00;100547.96;106045;1283;66219;-75
2022/10/27 03:34:38;;;;;;;29.90;18.00;;;;;;;9.36;100.00;100549.80;106093;1289;73490;-75
2022/10/27 03:37:25;;;;;;;32.70;19.50;;;;;;;9.36;100.00;100552.09;106080;1282;59618;-75
2022/10/27 03:40:14;;;;;;;30.40;18.00;;;;;;;9.36;100.00;100548.86;106126;1288;61677;-75
2022/10/27 03:43:01;;;;;;;28.40;17.80;;;;;;;9.34;100.00;100546.75;106087;1281;73412;-75
2022/10/27 03:45:49;;;;;;;32.60;18.40;;;;;;;9.31;100.00;100553.27;106112;1289;67648;-75
2022/10/27 03:48:37;;;;;;;31.00;18.50;;;;;;;9.33;100.00;100555.48;106090;1288;73500;-76
2022/10/27 03:51:25;;;;;;;31.00;18.20;;;;;;;9.36;100.00;100561.27;106111;1281;57865;-75
2022/10/27 03:54:12;;;;;;;27.60;17.20;;;;;;;9.40;100.00;100565.13;106032;1283;58747;-76
2022/10/27 03:57:00;;;;;;;31.90;19.10;;;;;;;9.43;100.00;100566.56;106095;1289;71984;-76
2022/10/27 03:59:48;;;;;;;28.60;17.60;;;;;;;9.43;100.00;100565.27;106098;1287;67688;-77
2022/10/27 04:02:36;;;;;;;29.20;17.10;;;;;;;9.43;100.00;100565.81;106087;1286;71898;-74
2022/10/27 04:05:24;;;;;;;29.20;17.20;;;;;;;9.44;100.00;100568.39;106111;1281;58281;-75
2022/10/27 04:08:12;;;;;;;29.20;17.60;;;;;;;9.46;100.00;100573.04;106093;1296;60100;-75
2022/10/27 04:11:00;;;;;;;26.50;15.40;;;;;;;9.45;100.00;100574.40;106090;1289;72058;-76
2022/10/27 04:13:48;;;;;;;26.30;15.90;;;;;;;9.40;100.00;100577.70;106060;1289;69091;-76
2022/10/27 04:16:36;;;;;;;24.40;13.20;;;;;;;9.35;100.00;100577.67;106116;1281;70965;-76
2022/10/27 04:19:24;;;;;;;29.60;16.60;;;;;;;9.29;100.00;100580.52;105870;1287;59247;-76
2022/10/27 04:22:11;;;;;;;27.20;15.10;;;;;;;9.24;100.00;100582.45;106115;1289;61190;-75
2022/10/27 04:24:59;;;;;;;29.40;16.10;;;;;;;9.19;100.00;100585.73;106121;1290;71874;-75
2022/10/27 04:27:47;;;;;;;26.30;15.20;;;;;;;9.16;100.00;100583.14;106098;1289;68952;-75
2022/10/27 04:30:36;;;;;;;25.20;15.90;;;;;;;9.12;100.00;100584.09;106111;1283;72562;-76
2022/10/27 04:33:24;;;;;;;27.10;15.50;;;;;;;9.07;100.00;100581.17;106108;1289;59336;-76
2022/10/27 04:36:15;;;;;;;22.60;12.80;;;;;;;8.96;100.00;100573.38;106122;1288;60170;-76
2022/10/27 04:39:03;;;;;;;23.50;14.10;;;;;;;8.90;100.00;100575.77;106125;1281;71955;-75
2022/10/27 04:41:51;;;;;;;25.80;15.30;;;;;;;8.85;100.00;100576.21;106137;1288;67650;-76
2022/10/27 04:44:38;;;;;;;26.40;11.90;;;;;;;8.81;100.00;100577.17;106110;1296;73591;-77
2022/10/27 04:47:26;;;;;;;22.70;12.90;;;;;;;8.75;100.00;100574.72;106118;1289;59480;-75
2022/10/27 04:50:15;;;;;;;23.20;14.20;;;;;;;8.71;100.00;100579.05;106133;1289;60202;-76
2022/10/27 04:53:03;;;;;;;23.80;14.30;;;;;;;8.66;100.00;100575.61;106111;1288;72016;-76
2022/10/27 04:55:53;;;;;;;23.40;14.40;;;;;;;8.63;100.00;100572.80;106123;1289;66106;-77
2022/10/27 04:58:41;;;;;;;21.50;12.30;;;;;;;8.60;100.00;100575.07;106114;1289;73672;-77
2022/10/27 05:01:29;;;;;;;24.70;14.30;;;;;;;8.56;100.00;100579.24;106089;1289;60563;-77
2022/10/27 05:04:17;;;;;;;21.80;12.80;;;;;;;8.53;100.00;100582.98;106002;1281;60256;-78
2022/10/27 05:07:05;;;;;;;23.50;13.80;;;;;;;8.49;100.00;100585.85;106110;1288;72016;-76
2022/10/27 05:09:52;;;;;;;21.10;12.60;;;;;;;8.47;100.00;100594.98;106094;1285;65919;-76
2022/10/27 05:12:40;;;;;;;24.80;14.50;;;;;;;8.44;100.00;100592.11;106128;1289;71396;-77
2022/10/27 05:15:29;;;;;;;23.20;13.70;;;;;;;8.43;100.00;100594.15;106111;1289;59336;-76
2022/10/27 05:18:17;;;;;;;20.90;11.60;;;;;;;8.40;100.00;100597.86;106023;1288;59196;-77
2022/10/27 05:21:05;;;;;;;22.00;13.50;;;;;;;8.35;100.00;100596.19;106103;1288;71978;-76
2022/10/27 05:23:52;;;;;;;22.60;12.60;;;;;;;8.34;100.00;100591.98;106092;1275;68723;-77
2022/10/27 05:26:40;;;;;;;19.80;12.10;;;;;;;8.34;100.00;100601.38;106009;1284;72332;-76
2022/10/27 05:29:30;;;;;;;22.10;12.60;;;;;;;8.33;100.00;100607.29;106124;1289;60742;-77
2022/10/27 05:32:17;;;;;;;19.70;12.00;;;;;;;8.32;100.00;100618.48;106118;1289;60036;-77
2022/10/27 05:35:06;;;;;;;23.60;12.80;;;;;;;8.30;100.00;100613.80;106113;1289;73140;-76
2022/10/27 05:37:53;;;;;;;21.80;12.30;;;;;;;8.28;100.00;100613.38;106134;1288;67985;-77
2022/10/27 05:40:41;;;;;;;21.30;12.40;;;;;;;8.24;100.00;100613.98;106077;1281;73641;-77
2022/10/27 05:43:29;;;;;;;18.70;11.30;;;;;;;8.22;100.00;100615.38;106105;1289;60546;-76
2022/10/27 05:46:25;;;;;;;19.40;11.30;;;;;;;8.22;100.00;100610.77;106127;1281;59273;-76
2022/10/27 05:49:13;;;;;;;18.80;11.20;;;;;;;8.22;100.00;100609.34;106106;1282;71929;-76
2022/10/27 05:52:01;;;;;;;18.10;10.20;;;;;;;8.20;100.00;100604.16;106117;1289;66337;-77
2022/10/27 05:54:49;;;;;;;21.50;12.30;;;;;;;8.17;100.00;100600.96;106126;1296;73500;-78
2022/10/27 05:57:37;;;;;;;19.60;11.00;;;;;;;8.19;100.00;100594.63;106127;1296;59320;-77
2022/10/27 06:00:31;;;;;;;20.30;11.60;;;;;;;8.22;100.00;100591.30;106110;1282;61251;-76
2022/10/27 06:03:22;;;;;;;23.20;13.20;;;;;;;8.26;100.00;100592.48;106129;1289;72316;-76
2022/10/27 06:06:09;;;;;;;24.60;13.50;;;;;;;8.33;100.00;100599.13;106123;1281;68045;-77
2022/10/27 06:08:57;;;;;;;27.40;14.00;;;;;;;8.40;100.00;100605.77;105937;1289;72562;-76
2022/10/27 06:11:45;;;;;;;25.80;12.90;;;;;;;8.51;100.00;100601.45;106111;1289;59345;-76
2022/10/27 06:14:32;;;;;;;23.90;12.00;;;;;;;8.62;100.00;100597.79;106064;1292;60411;-77
2022/10/27 06:17:20;;;;;;;27.10;15.30;;;;;;;8.72;100.00;100601.80;106081;1287;73031;-77
2022/10/27 06:20:09;;;;;;;23.30;11.90;;;;;;;8.85;100.00;100604.50;106022;1283;68632;-76
2022/10/27 06:22:58;;;;;;;25.50;13.30;;;;;;;8.98;100.00;100614.16;106129;1288;72868;-76
2022/10/27 06:25:46;;;;;;;27.20;13.80;;;;;;;9.11;100.00;100618.46;106114;1289;59585;-77
2022/10/27 06:28:34;;;;;;;23.50;12.80;;;;;;;9.24;100.00;100622.32;105954;1284;58679;-77
2022/10/27 06:31:22;;;;;;;24.90;13.40;;;;;;;9.34;100.00;100623.75;106095;1288;73273;-76
2022/10/27 06:34:10;;;;;;;21.20;11.60;;;;;;;9.47;100.00;100622.77;106096;1287;67510;-77
2022/10/27 06:36:57;;;;;;;20.80;12.20;;;;;;;9.57;100.00;100621.27;106106;1266;74072;-77
2022/10/27 06:39:46;;;;;;;21.60;12.80;;;;;;;9.64;100.00;100620.97;106122;1281;56798;-75
2022/10/27 06:42:35;;;;;;;22.80;12.00;;;;;;;9.69;100.00;100621.13;106122;1281;59011;-76
2022/10/27 06:45:47;;;;;;;21.90;12.60;;;;;;;9.74;100.00;100623.52;106090;1288;73015;-76
2022/10/27 06:48:34;;;;;;;20.50;11.90;;;;;;;9.75;100.00;100630.52;105943;1284;68790;-77
2022/10/27 06:51:22;;;;;;;22.40;12.40;;;;;;;9.79;100.00;100631.89;106128;1281;72319;-76
2022/10/27 06:54:10;;;;;;;24.10;12.70;;;;;;;9.85;100.00;100632.67;106102;1282;60697;-77
2022/10/27 06:56:58;;;;;;;26.80;13.00;;;;;;;9.96;100.00;100630.77;106114;1296;60066;-75
2022/10/27 06:59:46;;;;;;;26.50;13.70;;;;;;;10.10;100.00;100635.84;106103;1289;72985;-77
2022/10/27 07:02:34;;;;;;;30.50;14.50;;;;;;;10.27;100.00;100648.19;106007;1289;69024;-77
2022/10/27 07:05:21;;;;;;;28.50;13.90;;;;;;;10.43;100.00;100649.88;106085;1287;70476;-78
2022/10/27 07:08:12;;;;;;;23.00;13.60;;;;;;;10.58;100.00;100653.77;106114;1289;57749;-76
2022/10/27 07:10:59;;;;;;;25.10;13.10;;;;;;;10.75;100.00;100644.44;106130;1289;61576;-80
2022/10/27 07:13:47;;;;;;;23.20;13.00;;;;;;;10.91;99.97;100648.31;106111;1288;70801;-78
2022/10/27 07:16:35;;;;;;;26.00;12.80;;;;;;;11.03;99.61;100656.00;106143;1281;67865;-77
2022/10/27 07:19:22;;;;;;;23.80;13.40;;;;;;;11.19;98.62;100657.20;106029;1287;72327;-78
2022/10/27 07:22:10;;;;;;;22.90;13.00;;;;;;;11.48;97.71;100665.11;106104;1280;59283;-78
2022/10/27 07:24:58;;;;;;;21.50;12.20;;;;;;;12.30;97.76;100664.20;106030;1291;60102;-79
2022/10/27 07:27:52;;;;;;;23.50;13.00;;;;;;;13.69;93.49;100656.88;106089;1289;73466;-77
2022/10/27 07:30:43;;;;;;;22.20;13.60;;;;;;;14.36;89.09;100656.52;106092;1281;66559;-78
2022/10/27 07:33:31;;;;;;;21.60;12.30;;;;;;;15.12;86.05;100653.94;105710;1292;70580;-78
2022/10/27 07:36:20;;;;;;;21.50;14.00;;;;;;;16.64;81.61;100644.77;105728;1287;57762;-78
2022/10/27 07:39:08;;;;;;;26.00;14.10;;;;;;;18.10;73.96;100642.90;105831;1295;60374;-78
2022/10/27 07:41:56;;;;;;;23.70;14.30;;;;;;;18.81;68.92;100642.73;105850;1287;71967;-79
2022/10/27 07:44:43;;;;;;;24.60;14.10;;;;;;;18.30;68.41;100649.86;105849;1292;67712;-77
2022/10/27 07:47:31;;;;;;;22.30;12.30;;;;;;;17.75;68.48;100654.36;105739;1300;73875;-78
2022/10/27 07:50:22;;;;;;;29.10;18.10;;;;;;;17.55;68.36;100663.66;105829;1299;58107;-79
2022/10/27 07:53:15;;;;;;;21.90;12.00;;;;;;;18.29;68.00;100664.52;105982;1281;58676;-78
2022/10/27 07:56:03;;;;;;;20.50;12.50;;;;;;;19.41;63.71;100663.10;106120;1289;71977;-77
2022/10/27 07:58:51;;;;;;;22.70;12.00;;;;;;;20.24;60.21;100664.20;106121;1289;68151;-78
2022/10/27 08:01:38;;;;;;;20.80;12.10;;;;;;;20.95;56.17;100658.52;106050;1289;73989;-77
2022/10/27 08:04:26;;;;;;;18.20;11.20;;;;;;;21.67;54.42;100672.77;105992;1297;58179;-78
2022/10/27 08:07:14;;;;;;;17.10;10.20;;;;;;;22.46;51.84;100669.14;105983;1288;61151;-78
2022/10/27 08:10:02;;;;;;;15.10;9.60;;;;;;;23.06;49.73;100665.92;105988;1284;72943;-77
2022/10/27 08:12:50;;;;;;;13.50;8.80;;;;;;;22.66;48.90;100672.39;106067;1291;68861;-77
2022/10/27 08:15:41;;;;;;;12.60;8.00;;;;;;;21.35;50.87;100665.40;106059;1297;73952;-78
2022/10/27 08:18:30;;;;;;;13.40;7.80;;;;;;;19.73;53.96;100677.31;106044;1289;57867;-76
2022/10/27 08:21:17;;;;;;;13.30;8.80;;;;;;;18.42;58.13;100672.20;106071;1276;61284;-77
2022/10/27 08:24:06;;;;;;;15.90;9.60;;;;;;;17.60;61.21;100677.17;106070;1290;72220;-78
2022/10/27 08:26:54;;;;;;;18.10;9.80;;;;;;;16.93;63.83;100677.70;105986;1290;68767;-78
2022/10/27 08:29:42;;;;;;;15.70;9.70;;;;;;;16.37;66.15;100686.27;106055;1292;70644;-78
2022/10/27 08:32:30;;;;;;;17.60;10.10;;;;;;;16.00;68.15;100689.52;106069;1285;58938;-78
2022/10/27 08:35:18;;;;;;;13.30;8.10;;;;;;;15.70;69.62;100693.76;106066;1291;60095;-77
2022/10/27 08:38:12;;;;;;;14.30;8.90;;;;;;;15.34;71.14;100693.20;106080;1292;73454;-78
2022/10/27 08:41:52;;;;;;;17.30;9.40;;;;;;;15.05;72.60;100687.70;106106;1289;67686;-78
2022/10/27 08:44:52;;;;;;;19.20;11.10;;;;;;;14.76;74.40;100690.89;106008;1292;73439;-77
2022/10/27 08:47:40;;;;;;;16.90;10.30;;;;;;;14.59;75.76;100691.23;105992;1291;59461;-77
2022/10/27 08:50:37;;;;;;;17.70;11.40;;;;;;;14.46;76.59;100690.64;105924;1289;61207;-78
2022/10/27 08:53:32;;;;;;;17.70;10.10;;;;;;;14.37;77.43;100687.83;105990;1284;73138;-78
2022/10/27 08:56:24;;;;;;;16.00;10.20;;;;;;;14.34;78.38;100687.95;106000;1288;67826;-77
2022/10/27 08:59:19;;;;;;;18.60;11.10;;;;;;;14.27;78.82;100691.55;105915;1292;71308;-77
2022/10/27 09:02:44;;;;;;;17.00;9.80;;;;;;;14.29;79.30;100693.67;106052;1292;60770;-79
2022/10/27 09:06:18;;;;;;;17.90;10.00;;;;;;;14.81;78.75;100691.13;106040;1281;60079;-77
2022/10/27 09:09:31;;;;;;;18.20;10.80;;;;;;;15.00;77.39;100691.98;106076;1290;71019;-76
2022/10/27 09:12:30;;;;;;;14.20;8.80;;;;;;;15.05;77.10;100693.02;106080;1281;66479;-78
2022/10/27 09:15:41;;;;;;;15.70;9.20;;;;;;;15.09;77.35;100682.96;106005;1291;72541;-77
2022/10/27 09:18:46;;;;;;;14.40;8.60;;;;;;;15.14;77.33;100682.91;106032;1288;57116;-77
2022/10/27 09:21:35;;;;;;;15.50;9.10;;;;;;;15.23;77.42;100684.13;106023;1282;59058;-77
2022/10/27 09:24:28;;;;;;;14.70;8.80;;;;;;;15.31;77.19;100682.55;106011;1289;71444;-77
2022/10/27 09:27:15;;;;;;;14.20;8.80;;;;;;;15.48;77.39;100680.30;106069;1282;68668;-76
2022/10/27 09:30:05;;;;;;;13.50;8.10;;;;;;;16.06;75.74;100676.80;106051;1288;72443;-76
2022/10/27 09:32:59;;;;;;;13.60;8.20;;;;;;;16.67;73.96;100667.42;106072;1291;57828;-77
2022/10/27 09:35:50;;;;;;;13.40;7.80;;;;;;;17.13;70.80;100667.16;104464;1296;1002078;-72
2022/10/27 09:38:38;;;;;;;13.00;8.00;;;;;;;17.41;69.84;100669.72;106034;1289;72097;-76
2022/10/27 09:41:26;;;;;;;13.10;7.60;;;;;;;17.37;69.29;100669.42;106056;1292;68159;-77
2022/10/27 09:44:22;;;;;;;15.20;7.60;;;;;;;17.46;69.87;100673.95;105984;1297;73433;-75
2022/10/27 09:47:11;;;;;;;14.80;8.50;;;;;;;19.17;66.71;100673.58;106046;1289;57639;-76
2022/10/27 09:50:01;;;;;;;14.50;9.20;;;;;;;21.83;59.92;100672.70;106048;1289;61120;-75
2022/10/27 09:52:50;;;;;;;12.40;7.60;;;;;;;23.52;52.84;100672.92;105965;1290;72760;-78
2022/10/27 09:55:51;;;;;;;13.20;6.90;;;;;;;24.96;48.07;100669.88;106073;1292;67646;-75
2022/10/27 09:59:01;;;;;;;11.30;5.60;;;;;;;24.90;47.19;100669.41;105977;1279;73647;-75
2022/10/27 10:01:58;;;;;;;11.20;6.20;;;;;;;23.87;48.31;100678.73;106017;1289;57694;-74
2022/10/27 10:04:46;;;;;;;14.00;8.60;;;;;;;23.55;49.55;100679.30;106115;1289;61409;-76
2022/10/27 10:07:40;;;;;;;13.10;7.10;;;;;;;23.72;49.45;100680.96;106120;1282;71922;-75
2022/10/27 10:10:28;;;;;;;20.80;13.90;;;;;;;23.42;49.04;100679.75;106049;1289;66241;-77
2022/10/27 10:13:17;;;;;;;12.10;7.00;;;;;;;22.84;50.44;100681.66;106120;1289;73470;-76
2022/10/27 10:16:15;;;;;;;12.70;7.30;;;;;;;22.39;51.63;100683.05;106101;1281;59350;-76
2022/10/27 10:19:14;;;;;;;14.30;7.00;;;;;;;22.38;52.14;100683.35;106135;1282;61547;-76
2022/10/27 10:22:02;;;;;;;11.60;6.80;;;;;;;23.82;50.17;100685.70;106105;1288;71844;-77
2022/10/27 10:24:50;;;;;;;11.20;7.10;;;;;;;24.99;46.24;100682.39;106121;1288;68875;-77
2022/10/27 10:27:38;;;;;;;11.00;6.10;;;;;;;26.16;44.66;100682.42;106129;1289;72879;-75
2022/10/27 10:30:26;;;;;;;11.30;6.60;;;;;;;27.25;41.74;100680.36;106090;1289;56867;-79
2022/10/27 10:33:16;;;;;;;13.20;6.80;;;;;;;27.93;39.42;100677.62;106021;1296;60002;-79
2022/10/27 10:36:37;;;;;;;16.60;7.10;;;;;;;28.48;38.17;100681.84;106112;1288;72366;-76
2022/10/27 10:39:28;;;;;;;11.00;5.70;;;;;;;28.97;37.61;100683.86;106114;1281;68597;-78
2022/10/27 10:42:18;;;;;;;12.10;7.20;;;;;;;28.96;36.93;100682.30;106119;1280;72447;-76
2022/10/27 10:45:26;;;;;;;16.60;8.70;;;;;;;28.99;36.41;100684.65;106112;1288;56967;-77
2022/10/27 10:48:13;;;;;;;12.00;7.10;;;;;;;29.12;36.41;100690.20;106058;1281;59930;-76
2022/10/27 10:51:01;;;;;;;14.00;7.80;;;;;;;29.26;36.35;100688.55;106120;1289;71237;-77
2022/10/27 10:53:52;;;;;;;14.80;8.60;;;;;;;29.65;35.88;100686.44;106098;1282;68730;-76
2022/10/27 10:56:41;;;;;;;13.30;7.00;;;;;;;29.78;35.27;100687.54;106124;1289;73613;-75
2022/10/27 10:59:31;;;;;;;12.90;7.10;;;;;;;29.94;34.87;100686.00;106103;1273;57288;-75
2022/10/27 11:02:32;;;;;;;12.80;7.50;;;;;;;30.01;34.52;100682.14;106142;1281;58709;-75
2022/10/27 11:05:29;;;;;;;13.60;7.70;;;;;;;30.08;35.17;100679.97;106016;1288;72039;-76
2022/10/27 11:08:32;;;;;;;13.20;6.50;;;;;;;29.94;34.86;100681.85;106039;1292;68669;-76
2022/10/27 11:11:35;;;;;;;12.10;7.10;;;;;;;29.74;35.23;100682.35;106087;1283;73132;-77
2022/10/27 11:14:25;;;;;;;12.40;6.90;;;;;;;29.55;35.67;100679.86;106035;1289;58763;-76
2022/10/27 11:17:13;;;;;;;13.60;6.90;;;;;;;29.34;35.54;100681.20;106053;1292;60052;-75
2022/10/27 11:20:11;;;;;;;11.70;6.40;;;;;;;28.92;35.96;100686.78;106011;1289;73290;-76
2022/10/27 11:23:00;;;;;;;12.30;6.10;;;;;;;28.66;36.34;100689.80;106030;1289;68590;-76
2022/10/27 11:25:48;;;;;;;11.60;6.40;;;;;;;28.44;36.84;100686.21;105948;1289;73093;-76
2022/10/27 11:29:02;;;;;;;12.50;6.80;;;;;;;28.28;36.87;100689.57;105995;1292;57690;-76
2022/10/27 11:32:45;;;;;;;11.20;6.20;;;;;;;28.00;37.29;100691.71;106108;1289;61148;-76
2022/10/27 11:35:53;;;;;;;13.90;6.20;;;;;;;27.65;37.83;100694.27;106042;1289;73300;-76
2022/10/27 11:39:09;;;;;;;10.20;5.50;;;;;;;27.34;38.15;100697.41;106018;1292;68673;-75
2022/10/27 11:42:17;;;;;;;11.30;6.30;;;;;;;27.07;38.83;100697.38;106123;1290;73577;-77
2022/10/27 11:45:24;;;;;;;11.80;6.30;;;;;;;26.69;39.29;100698.13;106120;1289;56802;-75
2022/10/27 11:48:22;;;;;;;11.30;6.30;;;;;;;26.29;40.34;100696.44;105962;1285;61270;-75
2022/10/27 11:51:22;;;;;;;11.80;6.20;;;;;;;25.93;41.35;100693.96;106117;1290;72182;-75
2022/10/27 11:54:10;;;;;;;11.00;6.30;;;;;;;25.63;42.03;100692.44;105967;1289;69063;-74
2022/10/27 11:57:47;;;;;;;12.10;5.70;;;;;;;25.48;42.61;100691.91;106026;1292;71258;-75
2022/10/27 12:01:10;;;;;;;14.00;5.40;;;;;;;25.23;43.41;100688.06;106107;1289;57635;-75
2022/10/27 12:04:09;;;;;;;13.40;6.00;;;;;;;24.87;43.78;100687.63;106116;1289;60230;-75
2022/10/27 12:07:50;;;;;;;11.90;5.80;;;;;;;24.61;44.54;100689.59;106122;1288;73454;-74
2022/10/27 12:11:24;;;;;;;12.10;6.10;;;;;;;24.30;44.89;100691.56;106051;1289;69067;-75
2022/10/27 12:14:26;;;;;;;17.10;6.00;;;;;;;23.71;46.24;100690.36;106110;1283;72764;-76
2022/10/27 12:17:21;;;;;;;13.20;6.20;;;;;;;23.10;47.68;100693.34;106119;1288;58100;-75
2022/10/27 12:20:16;;;;;;;11.30;6.00;;;;;;;22.65;49.08;100696.42;106107;1289;61106;-74
2022/10/27 12:23:33;;;;;;;11.60;5.80;;;;;;;22.12;50.42;100693.97;106020;1291;73303;-76
2022/10/27 12:26:30;;;;;;;12.40;5.60;;;;;;;21.58;52.06;100685.73;106038;1280;69073;-75
2022/10/27 12:29:21;;;;;;;11.10;5.50;;;;;;;21.22;53.15;100690.83;106012;1296;71422;-76
2022/10/27 12:32:19;;;;;;;11.10;5.30;;;;;;;21.18;53.81;100688.08;106097;1288;57765;-76
2022/10/27 12:35:39;;;;;;;10.30;4.70;;;;;;;21.01;54.32;100683.23;106029;1288;60127;-77
2022/10/27 12:38:42;;;;;;;12.10;5.20;;;;;;;20.81;55.22;100683.38;106079;1284;72486;-75
2022/10/27 12:41:47;;;;;;;11.40;5.40;;;;;;;20.81;55.54;100682.64;106100;1289;68817;-75
2022/10/27 12:45:00;;;;;;;11.70;5.50;;;;;;;20.64;56.26;100691.52;106142;1289;71156;-74
2022/10/27 12:48:33;;;;;;;12.70;4.50;;;;;;;20.43;56.85;100685.91;106119;1296;57703;-77
2022/10/27 12:51:39;;;;;;;10.80;4.40;;;;;;;20.13;57.61;100681.90;105927;1290;60191;-75
2022/10/27 12:54:44;;;;;;;12.60;4.40;;;;;;;19.92;58.05;100683.63;106120;1288;70923;-75
2022/10/27 12:57:52;;;;;;;8.70;3.60;;;;;;;19.69;58.94;100692.38;106120;1289;67823;-75
2022/10/27 13:01:19;;;;;;;14.50;4.00;;;;;;;19.26;60.12;100684.46;106011;1287;72855;-75
2022/10/27 13:04:43;;;;;;;15.30;4.60;;;;;;;19.00;61.13;100687.16;106089;1282;57787;-76
2022/10/27 13:07:59;;;;;;;17.00;5.60;;;;;;;18.77;62.25;100686.77;106118;1282;61274;-75